HKE131 RCKH-VHHH
Flight info
| Callsign | HKE131 |
|---|---|
| Flight time | N/A |
| Altitude | 30000 |
| Route | PARAS2A PARAS T7 WP521 G581 ELATO V522 ABBEY |
| Aircraft | A320/M-SDE3FGHIRWY/LB1 |
Departure
| Time | 2026-04-24 22:22 |
|---|---|
| Airport | Kaohsiung International Airport (RCKH) |
Arrival
| Time | N/A |
|---|---|
| Airport | Hong Kong International Airport (VHHH) |
| Time | Latitude | Longitude | Altitude | Speed | Heading |
|---|---|---|---|---|---|
| 2026-04-24 22:03 | 22.57213 | 120.34128 | 38 ft | 0 kts | 92° |
| 2026-04-24 22:13 | 22.57214 | 120.34107 | 37 ft | 4 kts | 96° |
| 2026-04-24 22:13 | 22.57217 | 120.34078 | 38 ft | 4 kts | 88° |
| 2026-04-24 22:13 | 22.57213 | 120.34055 | 34 ft | 4 kts | 77° |
| 2026-04-24 22:14 | 22.57204 | 120.34049 | 36 ft | 4 kts | 128° |
| 2026-04-24 22:14 | 22.57213 | 120.34035 | 34 ft | 4 kts | 182° |
| 2026-04-24 22:14 | 22.57237 | 120.34043 | 37 ft | 4 kts | 201° |
| 2026-04-24 22:14 | 22.57262 | 120.34050 | 36 ft | 4 kts | 181° |
| 2026-04-24 22:15 | 22.57290 | 120.34051 | 38 ft | 4 kts | 181° |
| 2026-04-24 22:15 | 22.57317 | 120.34051 | 38 ft | 4 kts | 181° |
| 2026-04-24 22:15 | 22.57344 | 120.34052 | 37 ft | 4 kts | 182° |
| 2026-04-24 22:15 | 22.57371 | 120.34053 | 36 ft | 4 kts | 174° |
| 2026-04-24 22:16 | 22.57396 | 120.34047 | 35 ft | 4 kts | 148° |
| 2026-04-24 22:16 | 22.57411 | 120.34029 | 38 ft | 2 kts | 93° |
| 2026-04-24 22:16 | 22.57411 | 120.34027 | 38 ft | 0 kts | 92° |
| 2026-04-24 22:18 | 22.57410 | 120.34039 | 38 ft | 3 kts | 92° |
| 2026-04-24 22:19 | 22.57409 | 120.34074 | 36 ft | 6 kts | 90° |
| 2026-04-24 22:19 | 22.57444 | 120.34118 | 38 ft | 12 kts | 16° |
| 2026-04-24 22:19 | 22.57556 | 120.34107 | 37 ft | 17 kts | 314° |
| 2026-04-24 22:19 | 22.57572 | 120.33975 | 38 ft | 19 kts | 272° |
| 2026-04-24 22:20 | 22.57576 | 120.33827 | 38 ft | 21 kts | 271° |
| 2026-04-24 22:20 | 22.57581 | 120.33664 | 38 ft | 20 kts | 272° |
| 2026-04-24 22:20 | 22.57587 | 120.33541 | 38 ft | 10 kts | 281° |
| 2026-04-24 22:20 | 22.57641 | 120.33502 | 38 ft | 9 kts | 1° |
| 2026-04-24 22:21 | 22.57652 | 120.33503 | 38 ft | 3 kts | 2° |
| 2026-04-24 22:21 | 22.57698 | 120.33505 | 37 ft | 10 kts | 3° |
| 2026-04-24 22:21 | 22.57752 | 120.33549 | 38 ft | 12 kts | 88° |
| 2026-04-24 22:21 | 22.57749 | 120.33687 | 38 ft | 37 kts | 91° |
| 2026-04-24 22:22 | 22.57732 | 120.34216 | 39 ft | 101 kts | 92° |
| 2026-04-24 22:22 | 22.57703 | 120.35160 | 38 ft | 148 kts | 91° |
| 2026-04-24 22:22 | 22.57678 | 120.36375 | 349 ft | 165 kts | 90° |
| 2026-04-24 22:22 | 22.57636 | 120.37606 | 1003 ft | 166 kts | 94° |
| 2026-04-24 22:23 | 22.57189 | 120.38766 | 1523 ft | 177 kts | 136° |
| 2026-04-24 22:23 | 22.56047 | 120.39194 | 2137 ft | 180 kts | 186° |
| 2026-04-24 22:23 | 22.54907 | 120.38622 | 2580 ft | 190 kts | 223° |
| 2026-04-24 22:23 | 22.53905 | 120.37565 | 2813 ft | 212 kts | 223° |
| 2026-04-24 22:24 | 22.52767 | 120.36442 | 3208 ft | 227 kts | 221° |
| 2026-04-24 22:24 | 22.51573 | 120.35304 | 3943 ft | 229 kts | 221° |
| 2026-04-24 22:24 | 22.50369 | 120.34170 | 4735 ft | 230 kts | 221° |
| 2026-04-24 22:24 | 22.49162 | 120.33035 | 5488 ft | 230 kts | 221° |
| 2026-04-24 22:25 | 22.47967 | 120.31912 | 6270 ft | 230 kts | 222° |
| 2026-04-24 22:25 | 22.46750 | 120.30767 | 6807 ft | 233 kts | 222° |
| 2026-04-24 22:25 | 22.45531 | 120.29621 | 6956 ft | 232 kts | 222° |
| 2026-04-24 22:25 | 22.44318 | 120.28482 | 6995 ft | 230 kts | 222° |
| 2026-04-24 22:26 | 22.43111 | 120.27347 | 7001 ft | 230 kts | 222° |
| 2026-04-24 22:26 | 22.41906 | 120.26215 | 7001 ft | 230 kts | 222° |
| 2026-04-24 22:26 | 22.40700 | 120.25083 | 7007 ft | 230 kts | 222° |
| 2026-04-24 22:26 | 22.39495 | 120.23951 | 7005 ft | 230 kts | 222° |
| 2026-04-24 22:27 | 22.38290 | 120.22818 | 7006 ft | 230 kts | 222° |
| 2026-04-24 22:27 | 22.37084 | 120.21685 | 7006 ft | 230 kts | 222° |
| 2026-04-24 22:27 | 22.35878 | 120.20551 | 7006 ft | 230 kts | 223° |
| 2026-04-24 22:27 | 22.34671 | 120.19417 | 7006 ft | 230 kts | 222° |
| 2026-04-24 22:28 | 22.33463 | 120.18284 | 7009 ft | 230 kts | 222° |
| 2026-04-24 22:28 | 22.32255 | 120.17153 | 7009 ft | 230 kts | 222° |
| 2026-04-24 22:28 | 22.31047 | 120.16021 | 7015 ft | 230 kts | 222° |
| 2026-04-24 22:28 | 22.29945 | 120.14784 | 7014 ft | 228 kts | 237° |
| 2026-04-24 22:29 | 22.28820 | 120.11290 | 7017 ft | 268 kts | 257° |
| 2026-04-24 22:29 | 22.28408 | 120.09318 | 7015 ft | 270 kts | 257° |
| 2026-04-24 22:29 | 22.27993 | 120.07342 | 7015 ft | 270 kts | 257° |
| 2026-04-24 22:30 | 22.27581 | 120.05394 | 7029 ft | 270 kts | 256° |
| 2026-04-24 22:30 | 22.27162 | 120.03422 | 7030 ft | 270 kts | 257° |
| 2026-04-24 22:30 | 22.26741 | 120.01449 | 7031 ft | 270 kts | 256° |
| 2026-04-24 22:30 | 22.26317 | 119.99462 | 7286 ft | 275 kts | 256° |
| 2026-04-24 22:31 | 22.25888 | 119.97459 | 8188 ft | 273 kts | 256° |
| 2026-04-24 22:31 | 22.25457 | 119.95464 | 9049 ft | 273 kts | 256° |
| 2026-04-24 22:31 | 22.25027 | 119.93468 | 9890 ft | 274 kts | 256° |
| 2026-04-24 22:31 | 22.24592 | 119.91441 | 10439 ft | 284 kts | 256° |
| 2026-04-24 22:32 | 22.24129 | 119.89282 | 10603 ft | 307 kts | 256° |
| 2026-04-24 22:32 | 22.23633 | 119.86962 | 10764 ft | 327 kts | 256° |
| 2026-04-24 22:32 | 22.23115 | 119.84539 | 11246 ft | 334 kts | 256° |
| 2026-04-24 22:32 | 22.22591 | 119.82090 | 11875 ft | 336 kts | 256° |
| 2026-04-24 22:33 | 22.22063 | 119.79629 | 12559 ft | 337 kts | 256° |
| 2026-04-24 22:33 | 22.21529 | 119.77156 | 13201 ft | 339 kts | 256° |
| 2026-04-24 22:33 | 22.20992 | 119.74669 | 13826 ft | 342 kts | 256° |
| 2026-04-24 22:33 | 22.20452 | 119.72163 | 14368 ft | 344 kts | 257° |
| 2026-04-24 22:34 | 22.19910 | 119.69637 | 14909 ft | 347 kts | 257° |
| 2026-04-24 22:34 | 22.19363 | 119.67094 | 15415 ft | 349 kts | 257° |
| 2026-04-24 22:34 | 22.18997 | 119.65400 | 15753 ft | 351 kts | 257° |
| 2026-04-24 22:34 | 22.18259 | 119.61993 | 16438 ft | 354 kts | 258° |
| 2026-04-24 22:35 | 22.17696 | 119.59397 | 16961 ft | 357 kts | 258° |
| 2026-04-24 22:35 | 22.17129 | 119.56781 | 17474 ft | 359 kts | 258° |
| 2026-04-24 22:35 | 22.16557 | 119.54141 | 17907 ft | 362 kts | 258° |
| 2026-04-24 22:35 | 22.16225 | 119.52351 | 18052 ft | 358 kts | 264° |
| 2026-04-24 22:36 | 22.16091 | 119.49673 | 18482 ft | 358 kts | 269° |
| 2026-04-24 22:36 | 22.16034 | 119.47019 | 18941 ft | 360 kts | 269° |
| 2026-04-24 22:36 | 22.15963 | 119.44311 | 19370 ft | 362 kts | 268° |
| 2026-04-24 22:36 | 22.15884 | 119.41583 | 19797 ft | 365 kts | 268° |
| 2026-04-24 22:37 | 22.15802 | 119.38836 | 20226 ft | 368 kts | 268° |
| 2026-04-24 22:37 | 22.15719 | 119.36066 | 20643 ft | 371 kts | 267° |
| 2026-04-24 22:37 | 22.15637 | 119.33275 | 21047 ft | 374 kts | 267° |
| 2026-04-24 22:37 | 22.15558 | 119.30464 | 21439 ft | 376 kts | 267° |
| 2026-04-24 22:38 | 22.15480 | 119.27631 | 21812 ft | 379 kts | 267° |
| 2026-04-24 22:38 | 22.15401 | 119.24775 | 22177 ft | 382 kts | 266° |
| 2026-04-24 22:38 | 22.15322 | 119.21895 | 22537 ft | 386 kts | 266° |
| 2026-04-24 22:38 | 22.15240 | 119.18996 | 22911 ft | 388 kts | 266° |
| 2026-04-24 22:39 | 22.15156 | 119.16077 | 23284 ft | 391 kts | 266° |
| 2026-04-24 22:39 | 22.15073 | 119.13140 | 23629 ft | 393 kts | 266° |
| 2026-04-24 22:39 | 22.14992 | 119.10183 | 23954 ft | 395 kts | 266° |
| 2026-04-24 22:39 | 22.15154 | 119.07210 | 24269 ft | 400 kts | 274° |
| 2026-04-24 22:40 | 22.15514 | 119.04232 | 24593 ft | 401 kts | 274° |
| 2026-04-24 22:40 | 22.15874 | 119.01247 | 24919 ft | 402 kts | 274° |
| 2026-04-24 22:40 | 22.16236 | 118.98249 | 25231 ft | 404 kts | 274° |
| 2026-04-24 22:40 | 22.16600 | 118.95240 | 25552 ft | 405 kts | 274° |
| 2026-04-24 22:41 | 22.16962 | 118.92212 | 25817 ft | 408 kts | 274° |
| 2026-04-24 22:41 | 22.17325 | 118.89169 | 26113 ft | 410 kts | 274° |
| 2026-04-24 22:41 | 22.17691 | 118.86117 | 26426 ft | 411 kts | 274° |
| 2026-04-24 22:41 | 22.18057 | 118.83074 | 26853 ft | 407 kts | 274° |
| 2026-04-24 22:42 | 22.18425 | 118.80026 | 27037 ft | 412 kts | 274° |
| 2026-04-24 22:42 | 22.18794 | 118.76956 | 27291 ft | 414 kts | 274° |
| 2026-04-24 22:42 | 22.19159 | 118.73906 | 27570 ft | 416 kts | 274° |
| 2026-04-24 22:42 | 22.19522 | 118.70805 | 27855 ft | 417 kts | 274° |
| 2026-04-24 22:43 | 22.19882 | 118.67700 | 28202 ft | 417 kts | 274° |
| 2026-04-24 22:43 | 22.20243 | 118.64603 | 28688 ft | 414 kts | 274° |
| 2026-04-24 22:43 | 22.20601 | 118.61540 | 29238 ft | 410 kts | 274° |
| 2026-04-24 22:43 | 22.20957 | 118.58501 | 29746 ft | 407 kts | 274° |
| 2026-04-24 22:44 | 22.21312 | 118.55470 | 30001 ft | 406 kts | 274° |
| 2026-04-24 22:44 | 22.21667 | 118.52438 | 30045 ft | 409 kts | 274° |
| 2026-04-24 22:44 | 22.22384 | 118.46336 | 30038 ft | 409 kts | 274° |
| 2026-04-24 22:45 | 22.23097 | 118.40303 | 30046 ft | 401 kts | 274° |
| 2026-04-24 22:45 | 22.23801 | 118.34196 | 30045 ft | 418 kts | 274° |
| 2026-04-24 22:46 | 22.24522 | 118.27929 | 30047 ft | 423 kts | 274° |
| 2026-04-24 22:46 | 22.25250 | 118.21630 | 30048 ft | 423 kts | 274° |
| 2026-04-24 22:47 | 22.25976 | 118.15328 | 30047 ft | 423 kts | 274° |
| 2026-04-24 22:47 | 22.26692 | 118.09022 | 30047 ft | 423 kts | 274° |
| 2026-04-24 22:48 | 22.27388 | 118.02716 | 30052 ft | 423 kts | 274° |
| 2026-04-24 22:48 | 22.28077 | 117.96411 | 30050 ft | 423 kts | 274° |
| 2026-04-24 22:49 | 22.28795 | 117.90114 | 30049 ft | 423 kts | 274° |
| 2026-04-24 22:49 | 22.29521 | 117.83817 | 30047 ft | 423 kts | 274° |
| 2026-04-24 22:50 | 22.30237 | 117.77558 | 30048 ft | 423 kts | 274° |
| 2026-04-24 22:50 | 22.30954 | 117.71257 | 30048 ft | 423 kts | 274° |
| 2026-04-24 22:51 | 22.31659 | 117.64950 | 30048 ft | 423 kts | 274° |
| 2026-04-24 22:51 | 22.32367 | 117.58652 | 30049 ft | 423 kts | 274° |
| 2026-04-24 22:52 | 22.33075 | 117.52349 | 30051 ft | 423 kts | 274° |
| 2026-04-24 22:52 | 22.33274 | 117.46051 | 30066 ft | 420 kts | 267° |
| 2026-04-24 22:53 | 22.33165 | 117.39741 | 30060 ft | 420 kts | 267° |
| 2026-04-24 22:53 | 22.33055 | 117.33426 | 30060 ft | 420 kts | 267° |
| 2026-04-24 22:54 | 22.32940 | 117.27116 | 30060 ft | 420 kts | 266° |
| 2026-04-24 22:54 | 22.32819 | 117.20806 | 30060 ft | 420 kts | 266° |
| 2026-04-24 22:55 | 22.32697 | 117.14497 | 30073 ft | 420 kts | 267° |
| 2026-04-24 22:55 | 22.32576 | 117.08242 | 30058 ft | 419 kts | 267° |
| 2026-04-24 22:56 | 22.32447 | 117.01946 | 30056 ft | 419 kts | 267° |
| 2026-04-24 22:56 | 22.32321 | 116.95650 | 30054 ft | 419 kts | 267° |
| 2026-04-24 22:57 | 22.32194 | 116.89357 | 30053 ft | 419 kts | 267° |
| 2026-04-24 22:57 | 22.32067 | 116.83057 | 30061 ft | 420 kts | 267° |
| 2026-04-24 22:58 | 22.31930 | 116.76756 | 30039 ft | 419 kts | 267° |
| 2026-04-24 22:58 | 22.31784 | 116.70467 | 30048 ft | 419 kts | 267° |
| 2026-04-24 22:59 | 22.31648 | 116.64180 | 30052 ft | 419 kts | 267° |
| 2026-04-24 23:00 | 22.31439 | 116.54745 | 30059 ft | 419 kts | 267° |
| 2026-04-24 23:00 | 22.31288 | 116.48450 | 30050 ft | 420 kts | 267° |
| 2026-04-24 23:01 | 22.31139 | 116.42139 | 30052 ft | 420 kts | 267° |
| 2026-04-24 23:01 | 22.30987 | 116.35823 | 30056 ft | 421 kts | 267° |
| 2026-04-24 23:02 | 22.30836 | 116.29550 | 30057 ft | 421 kts | 267° |
| 2026-04-24 23:02 | 22.30675 | 116.23234 | 30052 ft | 421 kts | 267° |
| 2026-04-24 23:03 | 22.30521 | 116.16906 | 30042 ft | 422 kts | 267° |
| 2026-04-24 23:03 | 22.30358 | 116.10572 | 30034 ft | 422 kts | 267° |
| 2026-04-24 23:04 | 22.30189 | 116.04237 | 30046 ft | 422 kts | 267° |
| 2026-04-24 23:04 | 22.30027 | 115.97897 | 30045 ft | 422 kts | 267° |
| 2026-04-24 23:05 | 22.29863 | 115.91555 | 30043 ft | 423 kts | 267° |
| 2026-04-24 23:05 | 22.29684 | 115.85201 | 30043 ft | 424 kts | 267° |
| 2026-04-24 23:06 | 22.29509 | 115.78834 | 30046 ft | 425 kts | 267° |
| 2026-04-24 23:06 | 22.29343 | 115.72458 | 30035 ft | 424 kts | 267° |
| 2026-04-24 23:06 | 22.29262 | 115.69269 | 29168 ft | 427 kts | 267° |
| 2026-04-24 23:07 | 22.29178 | 115.66038 | 28041 ft | 433 kts | 268° |
| 2026-04-24 23:07 | 22.29091 | 115.62802 | 27357 ft | 429 kts | 268° |
| 2026-04-24 23:07 | 22.29002 | 115.59602 | 26675 ft | 424 kts | 268° |
| 2026-04-24 23:07 | 22.28914 | 115.56433 | 26011 ft | 420 kts | 268° |
| 2026-04-24 23:08 | 22.28830 | 115.53293 | 25352 ft | 417 kts | 268° |
| 2026-04-24 23:08 | 22.28746 | 115.50176 | 24701 ft | 414 kts | 268° |
| 2026-04-24 23:08 | 22.28661 | 115.47081 | 24057 ft | 411 kts | 268° |
| 2026-04-24 23:08 | 22.28571 | 115.44002 | 23370 ft | 409 kts | 268° |
| 2026-04-24 23:09 | 22.28480 | 115.40948 | 22719 ft | 405 kts | 269° |
| 2026-04-24 23:09 | 22.28390 | 115.37969 | 22120 ft | 400 kts | 269° |
| 2026-04-24 23:09 | 22.28302 | 115.34991 | 21535 ft | 395 kts | 269° |
| 2026-04-24 23:09 | 22.28217 | 115.32047 | 20971 ft | 390 kts | 269° |
| 2026-04-24 23:10 | 22.28129 | 115.29131 | 20431 ft | 387 kts | 269° |
| 2026-04-24 23:10 | 22.28041 | 115.26236 | 19905 ft | 385 kts | 269° |
| 2026-04-24 23:10 | 22.27953 | 115.23355 | 19384 ft | 383 kts | 270° |
| 2026-04-24 23:10 | 22.27867 | 115.20494 | 18863 ft | 380 kts | 270° |
| 2026-04-24 23:11 | 22.27781 | 115.17653 | 18343 ft | 378 kts | 270° |
| 2026-04-24 23:11 | 22.27694 | 115.14828 | 17759 ft | 375 kts | 270° |
| 2026-04-24 23:11 | 22.27605 | 115.12028 | 17231 ft | 372 kts | 270° |
| 2026-04-24 23:11 | 22.27518 | 115.09247 | 16683 ft | 369 kts | 269° |
| 2026-04-24 23:12 | 22.27429 | 115.06491 | 16259 ft | 363 kts | 269° |
| 2026-04-24 23:12 | 22.27339 | 115.03844 | 15956 ft | 343 kts | 269° |
| 2026-04-24 23:12 | 22.27255 | 115.01293 | 15388 ft | 338 kts | 269° |
| 2026-04-24 23:12 | 22.27174 | 114.98769 | 14969 ft | 335 kts | 269° |
| 2026-04-24 23:13 | 22.27093 | 114.96266 | 14533 ft | 333 kts | 268° |
| 2026-04-24 23:13 | 22.27014 | 114.93775 | 14096 ft | 331 kts | 268° |
| 2026-04-24 23:13 | 22.26936 | 114.91302 | 13635 ft | 329 kts | 268° |
| 2026-04-24 23:13 | 22.26857 | 114.88841 | 13146 ft | 327 kts | 268° |
| 2026-04-24 23:14 | 22.26776 | 114.86393 | 12685 ft | 325 kts | 268° |
| 2026-04-24 23:14 | 22.26697 | 114.83958 | 12233 ft | 324 kts | 269° |
| 2026-04-24 23:14 | 22.26609 | 114.81538 | 11786 ft | 322 kts | 266° |
| 2026-04-24 23:14 | 22.26157 | 114.79181 | 11361 ft | 322 kts | 252° |
| 2026-04-24 23:15 | 22.25155 | 114.77032 | 10994 ft | 321 kts | 237° |
| 2026-04-24 23:15 | 22.23671 | 114.75209 | 10838 ft | 326 kts | 225° |
| 2026-04-24 23:15 | 22.22022 | 114.73521 | 10699 ft | 326 kts | 226° |
| 2026-04-24 23:15 | 22.20407 | 114.71861 | 10571 ft | 315 kts | 226° |
| 2026-04-24 23:16 | 22.18847 | 114.70259 | 10456 ft | 305 kts | 226° |
| 2026-04-24 23:16 | 22.17334 | 114.68706 | 10332 ft | 295 kts | 226° |
| 2026-04-24 23:16 | 22.15871 | 114.67201 | 10202 ft | 287 kts | 226° |
| 2026-04-24 23:16 | 22.14438 | 114.65724 | 10074 ft | 285 kts | 226° |
| 2026-04-24 23:17 | 22.13006 | 114.64251 | 9946 ft | 284 kts | 226° |
| 2026-04-24 23:17 | 22.11575 | 114.62782 | 9824 ft | 284 kts | 226° |
| 2026-04-24 23:17 | 22.10164 | 114.61336 | 9706 ft | 283 kts | 226° |
| 2026-04-24 23:17 | 22.08747 | 114.59883 | 9590 ft | 279 kts | 226° |
| 2026-04-24 23:18 | 22.07344 | 114.58445 | 9472 ft | 278 kts | 226° |
| 2026-04-24 23:18 | 22.05928 | 114.56992 | 9356 ft | 277 kts | 226° |
| 2026-04-24 23:18 | 22.04553 | 114.55580 | 9245 ft | 276 kts | 226° |
| 2026-04-24 23:18 | 22.03173 | 114.54147 | 9128 ft | 275 kts | 229° |
| 2026-04-24 23:19 | 22.02046 | 114.52500 | 9013 ft | 271 kts | 243° |
| 2026-04-24 23:19 | 22.01282 | 114.50645 | 8929 ft | 272 kts | 249° |
| 2026-04-24 23:19 | 22.00569 | 114.48759 | 8842 ft | 272 kts | 249° |
| 2026-04-24 23:19 | 21.99852 | 114.46877 | 8765 ft | 271 kts | 249° |
| 2026-04-24 23:20 | 21.99136 | 114.45000 | 8691 ft | 271 kts | 249° |
| 2026-04-24 23:20 | 21.98418 | 114.43126 | 8615 ft | 271 kts | 249° |
| 2026-04-24 23:20 | 21.97700 | 114.41256 | 8552 ft | 270 kts | 249° |
| 2026-04-24 23:20 | 21.96981 | 114.39390 | 8478 ft | 269 kts | 248° |
| 2026-04-24 23:21 | 21.96264 | 114.37525 | 8405 ft | 271 kts | 249° |
| 2026-04-24 23:21 | 21.95541 | 114.35640 | 8338 ft | 273 kts | 249° |
| 2026-04-24 23:21 | 21.94816 | 114.33753 | 8261 ft | 273 kts | 249° |
| 2026-04-24 23:21 | 21.94092 | 114.31866 | 8190 ft | 272 kts | 249° |
| 2026-04-24 23:22 | 21.93369 | 114.29983 | 8109 ft | 272 kts | 249° |
| 2026-04-24 23:22 | 21.92647 | 114.28102 | 8040 ft | 271 kts | 249° |
| 2026-04-24 23:22 | 21.91926 | 114.26228 | 7971 ft | 271 kts | 249° |
| 2026-04-24 23:22 | 21.91208 | 114.24352 | 7896 ft | 271 kts | 249° |
| 2026-04-24 23:23 | 21.90492 | 114.22480 | 7825 ft | 270 kts | 249° |
| 2026-04-24 23:23 | 21.89972 | 114.20548 | 7748 ft | 268 kts | 264° |
| 2026-04-24 23:23 | 21.89999 | 114.18551 | 7678 ft | 267 kts | 280° |
| 2026-04-24 23:23 | 21.90572 | 114.16656 | 7603 ft | 268 kts | 297° |
| 2026-04-24 23:24 | 21.91480 | 114.14901 | 7544 ft | 268 kts | 298° |
| 2026-04-24 23:24 | 21.92392 | 114.13146 | 7467 ft | 268 kts | 298° |
| 2026-04-24 23:24 | 21.93299 | 114.11391 | 7396 ft | 268 kts | 298° |
| 2026-04-24 23:24 | 21.94205 | 114.09636 | 7325 ft | 268 kts | 298° |
| 2026-04-24 23:25 | 21.95110 | 114.07884 | 7252 ft | 268 kts | 298° |
| 2026-04-24 23:25 | 21.95712 | 114.06716 | 7209 ft | 271 kts | 298° |
| 2026-04-24 23:25 | 21.96631 | 114.04935 | 7140 ft | 273 kts | 298° |
| 2026-04-24 23:25 | 21.97551 | 114.03150 | 7061 ft | 273 kts | 298° |
| 2026-04-24 23:26 | 21.98774 | 114.00784 | 6966 ft | 272 kts | 298° |
| 2026-04-24 23:26 | 21.99695 | 113.99000 | 6891 ft | 272 kts | 298° |
| 2026-04-24 23:26 | 22.00616 | 113.97217 | 6822 ft | 272 kts | 298° |
| 2026-04-24 23:26 | 22.01237 | 113.96015 | 6770 ft | 272 kts | 298° |